createdAt,value
2023-02-14T00:00:29.259Z,103410.63
2023-02-14T00:02:57.165Z,103407.94
2023-02-14T00:05:24.092Z,103405.84
2023-02-14T00:07:50.865Z,103404.03
2023-02-14T00:10:18.282Z,103402.22
2023-02-14T00:12:45.051Z,103415.03
2023-02-14T00:15:27.187Z,103413.72
2023-02-14T00:17:55.256Z,103409.84
2023-02-14T00:20:22.830Z,103403.56
2023-02-14T00:22:49.878Z,103401.75
2023-02-14T00:25:17.394Z,103394.84
2023-02-14T00:27:44.713Z,103401.47
2023-02-14T00:30:12.644Z,103396.97
2023-02-14T00:32:40.636Z,103396.72
2023-02-14T00:35:08.849Z,103397.06
2023-02-14T00:37:36.003Z,103394.94
2023-02-14T00:40:02.840Z,103395.88
2023-02-14T00:42:29.660Z,103400.06
2023-02-14T00:44:56.432Z,103401.44
2023-02-14T00:47:23.230Z,103394.41
2023-02-14T00:49:50.015Z,103389.91
2023-02-14T00:52:16.981Z,103393.22
2023-02-14T00:54:44.201Z,103393.72
2023-02-14T00:57:10.998Z,103383.31
2023-02-14T00:59:37.834Z,103389.97
2023-02-14T01:02:04.689Z,103390.63
2023-02-14T01:04:31.492Z,103379.84
2023-02-14T01:06:58.250Z,103387.94
2023-02-14T01:09:25.008Z,103381.81
2023-02-14T01:11:51.882Z,103378.50
2023-02-14T01:14:18.705Z,103369.94
2023-02-14T01:16:45.489Z,103375.66
2023-02-14T01:19:12.254Z,103370.41
2023-02-14T01:21:38.972Z,103358.16
2023-02-14T01:24:07.167Z,103372.41
2023-02-14T01:26:34.798Z,103372.09
2023-02-14T01:29:01.926Z,103370.94
2023-02-14T01:31:30.153Z,103367.19
2023-02-14T01:33:57.325Z,103363.91
2023-02-14T01:36:26.208Z,103361.53
2023-02-14T01:38:57.380Z,103367.41
2023-02-14T01:41:24.861Z,103365.34
2023-02-14T01:43:51.569Z,103364.78
2023-02-14T01:46:18.573Z,103370.63
2023-02-14T01:48:45.566Z,103368.81
2023-02-14T01:51:13.574Z,103366.28
2023-02-14T01:53:40.310Z,103363.72
2023-02-14T01:56:10.097Z,103366.00
2023-02-14T01:58:39.476Z,103370.19
2023-02-14T02:01:06.548Z,103353.22
2023-02-14T02:03:36.233Z,103362.69
2023-02-14T02:06:17.899Z,103359.97
2023-02-14T02:09:10.738Z,103361.94
2023-02-14T02:11:38.001Z,103362.72
2023-02-14T02:14:05.102Z,103363.16
2023-02-14T02:16:34.762Z,103360.34
2023-02-14T02:19:11.609Z,103370.09
2023-02-14T02:21:38.477Z,103359.00
2023-02-14T02:24:21.521Z,103362.75
2023-02-14T02:27:03.393Z,103366.38
2023-02-14T02:29:48.678Z,103359.75
2023-02-14T02:32:21.284Z,103357.66
2023-02-14T02:35:10.122Z,103353.47
2023-02-14T02:37:56.111Z,103361.56
2023-02-14T02:40:29.347Z,103354.94
2023-02-14T02:42:59.247Z,103365.63
2023-02-14T02:45:26.097Z,103362.63
2023-02-14T02:47:55.678Z,103357.19
2023-02-14T02:50:41.107Z,103356.00
2023-02-14T02:53:26.425Z,103355.84
2023-02-14T02:56:24.506Z,103345.78
2023-02-14T02:59:06.561Z,103357.94
2023-02-14T03:01:37.849Z,103356.88
2023-02-14T03:04:25.860Z,103353.16
2023-02-14T03:06:53.202Z,103353.88
2023-02-14T03:09:19.951Z,103340.53
2023-02-14T03:11:53.913Z,103342.94
2023-02-14T03:14:26.259Z,103347.44
2023-02-14T03:17:02.066Z,103344.44
2023-02-14T03:19:29.120Z,103341.44
2023-02-14T03:21:55.846Z,103332.28
2023-02-14T03:24:38.060Z,103323.13
2023-02-14T03:27:21.736Z,103327.66
2023-02-14T03:30:00.704Z,103333.34
2023-02-14T03:32:31.961Z,103336.66
2023-02-14T03:35:04.672Z,103335.13
2023-02-14T03:37:34.221Z,103340.81
2023-02-14T03:40:22.677Z,103340.34
2023-02-14T03:42:54.799Z,103336.16
2023-02-14T03:45:33.164Z,103325.06
2023-02-14T03:48:01.899Z,103336.00
2023-02-14T03:50:29.802Z,103328.03
2023-02-14T03:52:58.261Z,103328.97
2023-02-14T03:55:43.412Z,103332.38
2023-02-14T03:58:16.889Z,103329.69
2023-02-14T04:00:46.563Z,103328.94
2023-02-14T04:03:15.184Z,103331.50
2023-02-14T04:05:43.846Z,103330.25
2023-02-14T04:08:11.205Z,103325.47
2023-02-14T04:10:40.020Z,103335.34
2023-02-14T04:13:06.844Z,103326.97
2023-02-14T04:15:33.950Z,103323.81
2023-02-14T04:18:19.320Z,103328.91
2023-02-14T04:20:46.194Z,103329.66
2023-02-14T04:23:12.985Z,103332.19
2023-02-14T04:25:40.327Z,103332.38
2023-02-14T04:28:07.110Z,103334.94
2023-02-14T04:30:33.886Z,103330.56
2023-02-14T04:33:00.726Z,103329.38
2023-02-14T04:35:27.592Z,103339.69
2023-02-14T04:37:54.504Z,103338.28
2023-02-14T04:40:21.676Z,103338.00
2023-02-14T04:42:48.562Z,103321.97
2023-02-14T04:45:15.329Z,103328.28
2023-02-14T04:47:42.170Z,103317.31
2023-02-14T04:50:09.179Z,103331.13
2023-02-14T04:52:36.000Z,103320.94
2023-02-14T04:55:04.385Z,103329.31
2023-02-14T04:57:31.180Z,103316.75
2023-02-14T04:59:58.156Z,103317.66
2023-02-14T05:02:25.206Z,103324.53
2023-02-14T05:04:51.981Z,103322.16
2023-02-14T05:07:18.852Z,103317.06
2023-02-14T05:09:45.643Z,103319.78
2023-02-14T05:12:12.461Z,103308.06
2023-02-14T05:14:39.244Z,103312.56
2023-02-14T05:17:06.044Z,103312.00
2023-02-14T05:19:32.783Z,103314.69
2023-02-14T05:21:59.543Z,103320.06
2023-02-14T05:24:26.343Z,103315.16
2023-02-14T05:26:53.213Z,103315.16
2023-02-14T05:29:21.031Z,103311.22
2023-02-14T05:31:48.127Z,103313.63
2023-02-14T05:34:15.007Z,103317.66
2023-02-14T05:36:41.876Z,103313.91
2023-02-14T05:39:08.752Z,103311.69
2023-02-14T05:41:35.516Z,103311.41
2023-02-14T05:44:02.652Z,103314.41
2023-02-14T05:46:29.406Z,103306.78
2023-02-14T05:48:56.293Z,103299.25
2023-02-14T05:51:23.132Z,103309.88
2023-02-14T05:53:49.998Z,103307.78
2023-02-14T05:56:16.879Z,103307.47
2023-02-14T05:58:43.745Z,103309.25
2023-02-14T06:01:10.515Z,103299.09
2023-02-14T06:03:37.365Z,103304.50
2023-02-14T06:06:04.164Z,103304.50
2023-02-14T06:08:30.940Z,103303.44
2023-02-14T06:10:58.201Z,103299.41
2023-02-14T06:13:25.175Z,103298.47
2023-02-14T06:15:51.938Z,103304.50
2023-02-14T06:18:19.650Z,103304.50
2023-02-14T06:20:46.523Z,103302.84
2023-02-14T06:23:13.457Z,103308.53
2023-02-14T06:25:40.340Z,103314.22
2023-02-14T06:28:07.210Z,103313.91
2023-02-14T06:30:34.323Z,103314.03
2023-02-14T06:33:01.171Z,103316.75
2023-02-14T06:35:28.208Z,103319.44
2023-02-14T06:37:55.065Z,103316.31
2023-02-14T06:40:22.101Z,103319.78
2023-02-14T06:42:49.808Z,103318.25
2023-02-14T06:45:16.613Z,103314.09
2023-02-14T06:47:43.694Z,103318.59
2023-02-14T06:50:11.786Z,103324.13
2023-02-14T06:52:39.018Z,103322.47
2023-02-14T06:55:06.020Z,103319.34
2023-02-14T06:57:32.837Z,103319.19
2023-02-14T06:59:59.622Z,103323.41
2023-02-14T07:02:26.429Z,103325.03
2023-02-14T07:04:53.319Z,103320.06
2023-02-14T07:07:20.084Z,103316.03
2023-02-14T07:09:46.812Z,103318.75
2023-02-14T07:12:13.625Z,103321.13
2023-02-14T07:14:40.407Z,103315.91
2023-02-14T07:17:07.140Z,103313.34
2023-02-14T07:19:34.001Z,103322.06
2023-02-14T07:22:00.854Z,103317.56
2023-02-14T07:24:28.301Z,103316.97
2023-02-14T07:26:55.146Z,103325.97
2023-02-14T07:29:21.960Z,103322.38
2023-02-14T07:31:49.964Z,103324.66
2023-02-14T07:34:16.824Z,103314.75
2023-02-14T07:36:44.170Z,103313.84
2023-02-14T07:39:11.281Z,103317.78
2023-02-14T07:41:38.113Z,103318.38
2023-02-14T07:44:04.994Z,103313.88
2023-02-14T07:46:31.820Z,103319.56
2023-02-14T07:48:59.229Z,103314.75
2023-02-14T07:51:26.028Z,103326.44
2023-02-14T07:53:52.791Z,103327.06
2023-02-14T07:56:19.946Z,103314.91
2023-02-14T07:58:46.757Z,103324.03
2023-02-14T08:01:13.687Z,103311.88
2023-02-14T08:03:40.613Z,103314.41
2023-02-14T08:06:07.516Z,103314.09
2023-02-14T08:08:34.308Z,103311.50
2023-02-14T08:11:01.698Z,103305.00
2023-02-14T08:13:29.245Z,103314.91
2023-02-14T08:16:04.903Z,103314.59
2023-02-14T08:18:32.979Z,103318.47
2023-02-14T08:20:59.997Z,103318.28
2023-02-14T08:23:27.427Z,103324.41
2023-02-14T08:25:54.318Z,103318.97
2023-02-14T08:28:24.331Z,103315.78
2023-02-14T08:30:51.172Z,103315.59
2023-02-14T08:33:18.518Z,103313.66
2023-02-14T08:35:45.290Z,103308.78
2023-02-14T08:38:12.078Z,103314.63
2023-02-14T08:40:39.216Z,103313.94
2023-02-14T08:43:06.436Z,103319.00
2023-02-14T08:45:33.246Z,103309.97
2023-02-14T08:48:00.868Z,103313.63
2023-02-14T08:50:27.926Z,103309.97
2023-02-14T08:52:54.938Z,103306.41
2023-02-14T08:55:21.778Z,103314.78
2023-02-14T08:57:49.818Z,103306.91
2023-02-14T09:00:16.756Z,103308.38
2023-02-14T09:02:43.591Z,103314.91
2023-02-14T09:05:10.738Z,103311.22
2023-02-14T09:07:37.704Z,103309.97
2023-02-14T09:10:04.841Z,103312.31
2023-02-14T09:12:31.616Z,103313.00
2023-02-14T09:14:59.567Z,103310.69
2023-02-14T09:17:26.520Z,103309.44
2023-02-14T09:19:53.278Z,103310.59
2023-02-14T09:22:20.938Z,103309.47
2023-02-14T09:24:48.093Z,103307.47
2023-02-14T09:27:14.916Z,103305.19
2023-02-14T09:29:41.847Z,103303.66
2023-02-14T09:32:08.743Z,103297.41
2023-02-14T09:34:35.808Z,103303.03
2023-02-14T09:37:21.143Z,103299.59
2023-02-14T09:39:48.111Z,103291.78
2023-02-14T09:42:15.078Z,103287.56
2023-02-14T09:44:48.392Z,103300.50
2023-02-14T09:47:27.436Z,103297.25
2023-02-14T09:49:54.694Z,103286.34
2023-02-14T09:52:25.880Z,103287.22
2023-02-14T09:54:57.415Z,103290.28
2023-02-14T09:57:31.726Z,103284.75
2023-02-14T10:00:12.213Z,103284.38
2023-02-14T10:02:44.821Z,103283.31
2023-02-14T10:05:29.277Z,103275.34
2023-02-14T10:07:58.258Z,103280.28
2023-02-14T10:10:25.325Z,103275.25
2023-02-14T10:12:59.864Z,103279.44
2023-02-14T10:15:29.261Z,103280.59
2023-02-14T10:18:19.131Z,103280.28
2023-02-14T10:20:47.564Z,103287.25
2023-02-14T10:23:32.981Z,103285.00
2023-02-14T10:26:04.677Z,103284.28
2023-02-14T10:28:33.935Z,103281.75
2023-02-14T10:31:20.150Z,103282.22
2023-02-14T10:33:51.929Z,103281.25
2023-02-14T10:36:27.549Z,103285.31
2023-02-14T10:39:11.823Z,103280.75
2023-02-14T10:41:48.662Z,103276.16
2023-02-14T10:44:15.447Z,103274.38
2023-02-14T10:46:57.557Z,103277.41
2023-02-14T10:49:27.329Z,103272.69
2023-02-14T10:51:59.906Z,103275.84
2023-02-14T10:54:28.409Z,103277.22
2023-02-14T10:57:09.732Z,103273.03
2023-02-14T10:59:45.967Z,103277.84
2023-02-14T11:02:14.560Z,103274.38
2023-02-14T11:04:42.670Z,103277.28
2023-02-14T11:07:16.521Z,103267.41
2023-02-14T11:09:43.350Z,103269.88
2023-02-14T11:12:10.235Z,103266.16
2023-02-14T11:14:38.410Z,103266.34
2023-02-14T11:17:23.812Z,103264.41
2023-02-14T11:20:09.496Z,103262.34
2023-02-14T11:22:36.283Z,103252.69
2023-02-14T11:25:07.597Z,103252.22
2023-02-14T11:27:37.790Z,103252.16
2023-02-14T11:30:13.278Z,103255.16
2023-02-14T11:32:41.109Z,103243.59
2023-02-14T11:35:16.810Z,103251.31
2023-02-14T11:37:48.953Z,103248.56
2023-02-14T11:40:30.165Z,103246.19
2023-02-14T11:43:13.496Z,103242.53
2023-02-14T11:45:42.970Z,103234.22
2023-02-14T11:48:37.135Z,103232.81
2023-02-14T11:51:09.870Z,103234.13
2023-02-14T11:53:45.842Z,103229.38
2023-02-14T11:56:13.199Z,103227.41
2023-02-14T11:58:49.994Z,103221.44
2023-02-14T12:01:28.318Z,103225.13
2023-02-14T12:03:58.419Z,103217.09
2023-02-14T12:06:30.160Z,103219.97
2023-02-14T12:09:15.533Z,103214.97
2023-02-14T12:11:53.875Z,103207.44
2023-02-14T12:14:21.865Z,103209.25
2023-02-14T12:17:04.578Z,103213.00
2023-02-14T12:19:40.798Z,103198.88
2023-02-14T12:22:10.943Z,103201.75
2023-02-14T12:24:37.720Z,103195.19
2023-02-14T12:27:10.532Z,103195.66
2023-02-14T12:29:41.462Z,103193.25
2023-02-14T12:32:22.516Z,103196.13
2023-02-14T12:34:49.915Z,103188.50
2023-02-14T12:37:19.922Z,103181.91
2023-02-14T12:40:05.353Z,103171.50
2023-02-14T12:42:47.145Z,103179.88
2023-02-14T12:45:32.445Z,103166.97
2023-02-14T12:48:05.275Z,103176.25
2023-02-14T12:50:47.117Z,103167.97
2023-02-14T12:53:22.739Z,103169.94
2023-02-14T12:55:55.941Z,103160.78
2023-02-14T12:58:29.770Z,103153.31
2023-02-14T13:00:59.777Z,103150.28
2023-02-14T13:03:45.329Z,103153.13
2023-02-14T13:06:27.204Z,103150.78
2023-02-14T13:09:09.345Z,103146.31
2023-02-14T13:11:45.298Z,103137.69
2023-02-14T13:14:32.158Z,103122.72
2023-02-14T13:16:59.479Z,103135.72
2023-02-14T13:19:36.304Z,103127.94
2023-02-14T13:22:04.751Z,103114.72
2023-02-14T13:24:38.319Z,103114.47
2023-02-14T13:27:07.217Z,103116.25
2023-02-14T13:29:42.946Z,103113.25
2023-02-14T13:32:12.542Z,103115.13
2023-02-14T13:34:43.396Z,103108.88
2023-02-14T13:37:12.626Z,103107.09
2023-02-14T13:39:44.114Z,103108.75
2023-02-14T13:42:11.333Z,103105.16
2023-02-14T13:44:44.013Z,103103.38
2023-02-14T13:47:18.109Z,103104.34
2023-02-14T13:49:50.223Z,103101.03
2023-02-14T13:52:38.778Z,103095.84
2023-02-14T13:55:14.573Z,103095.22
2023-02-14T13:57:41.707Z,103087.28
2023-02-14T14:00:17.411Z,103083.88
2023-02-14T14:02:47.206Z,103086.28
2023-02-14T14:05:40.409Z,103082.53
2023-02-14T14:08:16.346Z,103080.84
2023-02-14T14:10:53.507Z,103059.53
2023-02-14T14:13:38.907Z,103072.50
2023-02-14T14:16:24.135Z,103080.66
2023-02-14T14:18:52.410Z,103077.25
2023-02-14T14:21:26.460Z,103070.41
2023-02-14T14:24:11.819Z,103070.22
2023-02-14T14:26:46.511Z,103067.50
2023-02-14T14:29:16.447Z,103064.97
2023-02-14T14:31:43.372Z,103063.59
2023-02-14T14:34:15.937Z,103069.91
2023-02-14T14:36:42.758Z,103069.50
2023-02-14T14:39:09.751Z,103067.09
2023-02-14T14:41:39.152Z,103070.81
2023-02-14T14:44:06.713Z,103062.59
2023-02-14T14:46:33.714Z,103067.72
2023-02-14T14:49:02.572Z,103073.38
2023-02-14T14:51:30.897Z,103062.31
2023-02-14T14:54:05.944Z,103065.56
2023-02-14T14:56:35.217Z,103058.16
2023-02-14T14:59:19.158Z,103063.06
2023-02-14T15:01:46.542Z,103055.97
2023-02-14T15:04:24.813Z,103061.88
2023-02-14T15:06:51.693Z,103056.44
2023-02-14T15:09:24.298Z,103052.28
2023-02-14T15:12:10.621Z,103036.47
2023-02-14T15:14:39.970Z,103059.88
2023-02-14T15:17:12.817Z,103048.06
2023-02-14T15:19:44.217Z,103047.13
2023-02-14T15:22:19.972Z,103047.75
2023-02-14T15:24:47.398Z,103052.03
2023-02-14T15:27:18.181Z,103053.34
2023-02-14T15:29:58.711Z,103057.06
2023-02-14T15:32:27.634Z,103063.22
2023-02-14T15:34:55.359Z,103054.00
2023-02-14T15:37:22.932Z,103057.22
2023-02-14T15:39:52.334Z,103057.09
2023-02-14T15:42:22.908Z,103058.16
2023-02-14T15:44:50.438Z,103054.47
2023-02-14T15:47:17.466Z,103051.84
2023-02-14T15:49:46.444Z,103047.81
2023-02-14T15:52:14.927Z,103042.88
2023-02-14T15:54:43.596Z,103044.81
2023-02-14T15:57:21.597Z,103043.06
2023-02-14T15:59:48.984Z,103039.16
2023-02-14T16:02:17.173Z,103036.63
2023-02-14T16:04:44.385Z,103028.72
2023-02-14T16:07:29.940Z,103033.16
2023-02-14T16:10:15.398Z,103033.34
2023-02-14T16:12:42.352Z,103029.13
2023-02-14T16:15:15.003Z,103041.56
2023-02-14T16:17:43.874Z,103033.38
2023-02-14T16:20:29.070Z,103027.69
2023-02-14T16:23:14.726Z,103027.34
2023-02-14T16:25:41.727Z,103029.41
2023-02-14T16:28:08.746Z,103026.41
2023-02-14T16:30:36.891Z,103024.25
2023-02-14T16:33:04.065Z,103022.25
2023-02-14T16:35:31.201Z,103022.59
2023-02-14T16:37:58.385Z,103028.19
2023-02-14T16:40:26.676Z,103021.63
2023-02-14T16:42:54.742Z,103019.47
2023-02-14T16:45:21.524Z,103020.00
2023-02-14T16:47:49.008Z,103019.72
2023-02-14T16:50:16.122Z,103013.84
2023-02-14T16:52:51.366Z,103017.66
2023-02-14T16:55:20.010Z,103007.50
2023-02-14T16:57:49.970Z,103017.25
2023-02-14T17:00:16.989Z,103020.19
2023-02-14T17:02:44.327Z,103003.53
2023-02-14T17:05:11.553Z,103022.50
2023-02-14T17:07:40.654Z,103025.31
2023-02-14T17:10:10.010Z,103018.78
2023-02-14T17:12:39.957Z,103028.50
2023-02-14T17:15:10.842Z,103020.91
2023-02-14T17:17:37.669Z,103028.94
2023-02-14T17:20:05.769Z,103030.84
2023-02-14T17:22:34.166Z,103029.53
2023-02-14T17:25:00.978Z,103039.28
2023-02-14T17:27:27.997Z,103038.84
2023-02-14T17:29:55.125Z,103034.91
2023-02-14T17:32:22.015Z,103036.97
2023-02-14T17:34:49.379Z,103041.63
2023-02-14T17:37:19.105Z,103031.72
2023-02-14T17:39:45.862Z,103042.28
2023-02-14T17:42:12.692Z,103038.97
2023-02-14T17:44:39.581Z,103035.09
2023-02-14T17:47:06.447Z,103036.56
2023-02-14T17:49:33.267Z,103029.44
2023-02-14T17:52:00.024Z,103034.25
2023-02-14T17:54:26.817Z,103033.06
2023-02-14T17:56:53.679Z,103037.13
2023-02-14T17:59:20.918Z,103039.38
2023-02-14T18:01:48.112Z,103033.00
2023-02-14T18:04:14.938Z,103029.13
2023-02-14T18:06:42.858Z,103028.47
2023-02-14T18:09:10.078Z,103031.50
2023-02-14T18:11:38.530Z,103027.84
2023-02-14T18:14:05.280Z,103016.56
2023-02-14T18:16:32.123Z,103020.47
2023-02-14T18:19:01.603Z,103023.50
2023-02-14T18:21:34.415Z,103020.63
2023-02-14T18:24:04.075Z,103011.47
2023-02-14T18:26:30.942Z,103019.19
2023-02-14T18:28:57.902Z,103023.09
2023-02-14T18:31:26.290Z,103034.75
2023-02-14T18:33:53.121Z,103023.25
2023-02-14T18:36:21.207Z,103017.97
2023-02-14T18:38:48.579Z,103011.84
2023-02-14T18:41:16.648Z,103007.34
2023-02-14T18:43:44.453Z,103006.22
2023-02-14T18:46:15.334Z,103007.66
2023-02-14T18:48:42.357Z,103006.56
2023-02-14T18:51:13.462Z,102989.50
2023-02-14T18:53:40.505Z,103005.13
2023-02-14T18:56:09.440Z,103002.88
2023-02-14T18:58:37.621Z,103001.78
2023-02-14T19:01:08.574Z,102993.09
2023-02-14T19:03:35.507Z,102995.41
2023-02-14T19:06:02.610Z,102994.31
2023-02-14T19:08:32.986Z,102988.03
2023-02-14T19:11:00.336Z,102990.38
2023-02-14T19:13:29.359Z,102992.31
2023-02-14T19:15:56.434Z,102987.50
2023-02-14T19:18:25.566Z,102985.56
2023-02-14T19:20:52.996Z,102982.13
2023-02-14T19:23:19.931Z,102975.09
2023-02-14T19:25:46.724Z,102981.44
2023-02-14T19:28:13.558Z,102979.44
2023-02-14T19:30:40.424Z,102977.41
2023-02-14T19:33:07.235Z,102970.94
2023-02-14T19:35:34.108Z,102975.16
2023-02-14T19:38:03.539Z,102973.94
2023-02-14T19:40:30.885Z,102975.38
2023-02-14T19:42:58.205Z,102966.56
2023-02-14T19:45:27.267Z,102968.88
2023-02-14T19:47:54.149Z,102967.53
2023-02-14T19:50:22.108Z,102966.41
2023-02-14T19:52:49.198Z,102952.13
2023-02-14T19:55:20.061Z,102968.81
2023-02-14T19:57:48.160Z,102960.44
2023-02-14T20:00:16.148Z,102970.19
2023-02-14T20:02:48.236Z,102958.19
2023-02-14T20:05:15.696Z,102952.25
2023-02-14T20:07:43.373Z,102953.16
2023-02-14T20:10:10.904Z,102957.94
2023-02-14T20:12:37.964Z,102958.47
2023-02-14T20:15:05.474Z,102954.66
2023-02-14T20:17:32.828Z,102956.09
2023-02-14T20:19:59.708Z,102950.09
2023-02-14T20:22:26.811Z,102945.94
2023-02-14T20:24:53.590Z,102943.16
2023-02-14T20:27:21.093Z,102943.69
2023-02-14T20:29:48.156Z,102936.53
2023-02-14T20:32:15.646Z,102944.75
2023-02-14T20:34:42.949Z,102940.69
2023-02-14T20:37:11.041Z,102941.00
2023-02-14T20:39:38.319Z,102926.47
2023-02-14T20:42:05.706Z,102935.53
2023-02-14T20:44:32.602Z,102926.28
2023-02-14T20:46:59.465Z,102927.72
2023-02-14T20:49:27.550Z,102931.72
2023-02-14T20:51:54.940Z,102931.34
2023-02-14T20:54:23.325Z,102923.53
2023-02-14T20:56:50.992Z,102922.31
2023-02-14T20:59:19.351Z,102928.59
2023-02-14T21:01:46.689Z,102918.09
2023-02-14T21:04:14.030Z,102925.78
2023-02-14T21:06:41.265Z,102919.00
2023-02-14T21:09:08.563Z,102901.75
2023-02-14T21:11:35.425Z,102914.28
2023-02-14T21:14:02.652Z,102912.63
2023-02-14T21:16:30.230Z,102902.38
2023-02-14T21:19:01.311Z,102906.38
2023-02-14T21:21:32.303Z,102899.09
2023-02-14T21:24:00.688Z,102902.81
2023-02-14T21:26:27.956Z,102904.34
2023-02-14T21:28:54.824Z,102908.34
2023-02-14T21:31:21.898Z,102901.19
2023-02-14T21:33:50.096Z,102907.09
2023-02-14T21:36:18.231Z,102903.28
2023-02-14T21:38:45.000Z,102895.44
2023-02-14T21:41:13.966Z,102891.91
2023-02-14T21:43:41.708Z,102883.44
2023-02-14T21:46:11.628Z,102885.22
2023-02-14T21:48:58.916Z,102876.53
2023-02-14T21:51:27.539Z,102885.63
2023-02-14T21:53:55.241Z,102890.13
2023-02-14T21:56:22.469Z,102880.66
2023-02-14T21:58:51.120Z,102881.69
2023-02-14T22:01:18.267Z,102889.66
2023-02-14T22:03:45.140Z,102878.41
2023-02-14T22:06:13.211Z,102881.59
2023-02-14T22:08:40.637Z,102885.56
2023-02-14T22:11:08.478Z,102879.69
2023-02-14T22:13:35.750Z,102884.16
2023-02-14T22:16:03.672Z,102878.91
2023-02-14T22:18:31.123Z,102876.34
2023-02-14T22:21:01.759Z,102881.38
2023-02-14T22:23:30.518Z,102882.00
2023-02-14T22:26:06.552Z,102882.28
2023-02-14T22:28:33.346Z,102883.69
2023-02-14T22:31:00.552Z,102883.69
2023-02-14T22:33:28.023Z,102877.00
2023-02-14T22:35:55.735Z,102873.09
2023-02-14T22:38:22.858Z,102868.47
2023-02-14T22:40:50.026Z,102868.22
2023-02-14T22:43:16.938Z,102868.50
2023-02-14T22:45:43.828Z,102865.19
2023-02-14T22:48:10.586Z,102864.03
2023-02-14T22:50:37.296Z,102860.69
2023-02-14T22:53:04.223Z,102853.81
2023-02-14T22:55:31.192Z,102854.44
2023-02-14T22:57:58.176Z,102859.41
2023-02-14T23:00:25.217Z,102854.28
2023-02-14T23:02:52.023Z,102853.66
2023-02-14T23:05:19.648Z,102844.31
2023-02-14T23:07:46.942Z,102852.41
2023-02-14T23:10:13.786Z,102855.44
2023-02-14T23:12:59.133Z,102852.50
2023-02-14T23:15:44.291Z,102847.16
2023-02-14T23:18:30.940Z,102858.00
2023-02-14T23:21:16.034Z,102861.06
2023-02-14T23:23:42.796Z,102865.66
2023-02-14T23:26:09.625Z,102864.34
2023-02-14T23:28:36.496Z,102866.69
2023-02-14T23:31:03.803Z,102866.16
2023-02-14T23:33:30.528Z,102864.34
2023-02-14T23:35:57.333Z,102866.16
2023-02-14T23:38:24.400Z,102861.81
2023-02-14T23:41:09.847Z,102866.66
2023-02-14T23:43:36.689Z,102865.47
2023-02-14T23:46:04.063Z,102863.44
2023-02-14T23:48:30.949Z,102857.19
2023-02-14T23:51:01.037Z,102860.75
2023-02-14T23:53:28.130Z,102861.00
2023-02-14T23:56:00.077Z,102854.38
2023-02-14T23:58:27.036Z,102851.16
